Latest Coastal Weather Observations for Norah Head

IDN60701

Issued at 3:51 am EST Wednesday 1 June 2016 (issued every 10 minutes, with the page automatically refreshed every 10 minutes)

About coastal observations | Map of coastal stations | Coastal observations for NSW | Marine services | Other Formats
Station Details ID: 061366 Name: NORAH HEAD AWS Lat: -33.28 Lon: 151.58 Height: 18.8 m
Data from the previous 72 hours. | See also: Recent months at Norah Head
Date/Time
EST
Temp

°C
Wind Pressure Rain
since 9am
mm
Weather Cloud Vis
km
Sea
Height
m
Swell
Dir
 
Speed
knots
Gust
knots
hPa Trend Height
m
Period
s
Dir
01/03:30am 13.0 W 7 11 1027.0 - 12.2 - - - - - - -
01/03:00am 13.1 WNW 4 7 1027.3 - 12.2 Recent precip. - - - - - -
01/02:30am 13.4 W 6 8 1027.5 - 12.2 - - - - - - -
01/02:00am 13.7 N 2 4 1027.7 - 12.0 - - - - - - -
01/01:30am 13.6 N 4 7 1027.8 - 12.0 - - - - - - -
01/01:00am 13.2 W 4 5 1028.0 - 11.2 - - - - - - -
01/12:30am 13.2 W 5 7 1028.1 - 8.4 - - - - - - -
01/12:00am 13.8 NW 7 11 1028.4 - 4.2 Rain - - - - - -
 
Date/Time
EST
Temp

°C
Wind Pressure Rain
since 9am
mm
Weather Cloud Vis
km
Sea
Height
m
Swell
Dir
 
Speed
knots
Gust
knots
hPa Trend Height
m
Period
s
Dir
31/11:30pm 13.6 W 7 14 1028.2 - 0.6 - - - - - - -
31/11:00pm 13.7 WSW 4 11 1028.5 - 0.4 - - - - - - -
31/10:30pm 14.5 W 3 6 1028.5 - 0.4 - - - - - - -
31/10:00pm 16.3 SSE 8 14 1028.5 - 0.4 - - - - - - -
31/09:30pm 15.0 SW 4 6 1028.4 - 0.4 - - - - - - -
31/09:00pm 16.9 SE 10 15 1028.3 - 0.4 - - - - - - -
31/08:30pm 16.2 SE 12 15 1028.1 - 0.4 - - - - - - -
31/08:00pm 15.9 SE 12 15 1028.2 - 0.4 - - - - - - -
31/07:30pm 15.6 ESE 15 18 1028.1 - 0.4 - - - - - - -
31/07:00pm 16.0 ESE 17 21 1027.9 - 0.4 - - - - - - -
31/06:30pm 17.0 ESE 14 19 1027.6 - 0.4 - - - - - - -
31/06:00pm 17.4 ESE 11 17 1027.3 - 0.4 - - - - - - -
31/05:30pm 17.5 ESE 11 15 1027.0 - 0.4 - - - - - - -
31/05:00pm 17.0 SE 10 13 1026.8 - 0.4 - - - - - - -
31/04:30pm 17.0 E 12 15 1026.7 - 0.4 - - - - - - -
31/04:00pm 16.9 ENE 12 15 1026.7 - 0.0 - - - - - - -
31/03:30pm 17.2 ESE 10 12 1026.7 - 0.0 - - - - - - -
31/03:00pm 16.9 NE 9 11 1026.8 - 0.0 - - - - - - -
31/02:30pm 16.3 ESE 5 9 1026.9 - 0.0 - - - - - - -
31/02:00pm 16.3 ESE 9 11 1026.9 - 0.0 - - - - - - -
31/01:30pm 17.6 SE 14 18 1027.0 - 0.0 - - - - - - -
31/01:00pm 17.8 SSE 9 12 1027.1 - 0.0 - - - - - - -
31/12:30pm 17.0 SSW 9 11 1027.4 - 0.0 - - - - - - -
31/12:00pm 17.3 S 7 11 1027.8 - 0.0 - - - - - - -
31/11:30am 17.0 SSW 8 11 1028.1 - 0.0 - - - - - - -
31/11:00am 15.6 SW 5 7 1028.5 - 0.0 - - - - - - -
31/10:30am 16.2 SW 5 8 1028.6 - 0.0 - - - - - - -
31/10:00am 14.1 W 5 9 1029.2 - 0.0 - - - - - - -
31/09:30am 13.8 WSW 6 8 1029.1 - 0.0 - - - - - - -
31/09:00am 12.5 W 8 11 1029.0 - 0.0 - - - - - - -
31/08:30am 11.4 W 8 11 1028.7 - 0.0 - - - - - - -
31/08:00am 10.6 W 8 11 1028.5 - 0.0 - - - - - - -
31/07:30am 9.9 W 8 12 1028.3 - 0.0 - - - - - - -
31/07:00am 10.1 W 8 12 1028.0 - 0.0 - - - - - - -
31/06:30am 9.9 WNW 8 11 1027.7 - 0.0 - - - - - - -
31/06:00am 10.2 W 8 11 1027.3 - 0.0 - - - - - - -
31/05:30am 9.6 W 8 11 1026.8 - 0.0 - - - - - - -
31/05:00am 9.8 W 8 11 1026.6 - 0.0 - - - - - - -
31/04:30am 9.8 W 8 11 1026.5 - 0.0 - - - - - - -
31/04:00am 9.8 W 8 11 1026.6 - 0.0 - - - - - - -
31/03:30am 10.0 W 9 12 1026.4 - 0.0 - - - - - - -
31/03:00am 10.1 W 8 11 1026.5 - 0.0 - - - - - - -
31/02:30am 10.3 W 9 11 1026.5 - 0.0 - - - - - - -
31/02:00am 10.2 W 8 10 1026.6 - 0.0 - - - - - - -
31/01:30am 10.6 WSW 9 11 1026.7 - 0.0 - - - - - - -
31/01:00am 10.4 WSW 8 10 1026.9 - 0.0 - - - - - - -
31/12:30am 10.9 WSW 8 10 1026.8 - 0.0 - - - - - - -
31/12:00am 10.9 WSW 9 11 1026.9 - 0.0 - - - - - - -
 
Date/Time
EST
Temp

°C
Wind Pressure Rain
since 9am
mm
Weather Cloud Vis
km
Sea
Height
m
Swell
Dir
 
Speed
knots
Gust
knots
hPa Trend Height
m
Period
s
Dir
30/11:30pm 11.3 W 9 11 1027.0 - 0.0 - - - - - - -
30/11:00pm 11.9 WSW 9 10 1026.9 - 0.0 - - - - - - -
30/10:30pm 11.6 WSW 8 10 1026.9 - 0.0 - - - - - - -
30/10:00pm 11.6 W 8 10 1026.9 - 0.0 - - - - - - -
30/09:30pm 12.1 W 9 11 1026.7 - 0.0 - - - - - - -
30/09:00pm 12.3 WSW 8 10 1026.6 - 0.0 - - - - - - -
30/08:30pm 13.0 WSW 8 9 1026.5 - 0.0 - - - - - - -
30/08:00pm 13.1 WSW 7 9 1026.4 - 0.0 - - - - - - -
30/07:30pm 13.8 WSW 7 8 1026.1 - 0.0 - - - - - - -
30/07:00pm 14.5 WSW 7 9 1026.0 - 0.0 - - - - - - -
30/06:30pm 15.1 SW 5 7 1025.9 - 0.0 - - - - - - -
30/06:00pm 15.3 SW 5 7 1025.5 - 0.0 - - - - - - -
30/05:30pm 15.0 SW 6 8 1025.3 - 0.0 - - - - - - -
30/05:00pm 15.1 SW 5 8 1024.9 - 0.0 - - - - - - -
30/04:30pm 15.4 WSW 4 5 1024.7 - 0.0 - - - - - - -
30/04:00pm 16.1 SSW 4 7 1024.4 - 0.0 - - - - - - -
30/03:30pm 16.4 SSW 6 9 1024.0 - 0.0 - - - - - - -
30/03:00pm 16.4 SSW 7 11 1023.8 - 0.0 - - - - - - -
30/02:30pm 16.9 SSW 5 10 1023.7 - 0.0 - - - - - - -
30/02:00pm 17.1 SSW 7 11 1023.7 - 0.0 - - - - - - -
30/01:30pm 16.8 SSW 8 12 1023.7 - 0.0 - - - - - - -
30/01:00pm 16.3 SSW 8 11 1023.8 - 0.0 - - - - - - -
30/12:30pm 15.8 SW 6 9 1024.0 - 0.0 - - - - - - -
30/12:00pm 16.0 WSW 4 9 1024.4 - 0.0 - - - - - - -
30/11:30am 15.7 WSW 5 8 1024.8 - 0.0 - - - - - - -
30/11:00am 15.3 W 6 12 1025.2 - 0.0 - - - - - - -
30/10:30am 14.1 W 5 10 1025.3 - 0.0 - - - - - - -
30/10:00am 13.5 W 6 11 1025.4 - 0.0 - - - - - - -
30/09:30am 12.6 W 5 11 1025.3 - 0.0 - - - - - - -
30/09:00am 11.4 W 6 11 1025.1 - 0.0 - - - - - - -
30/08:30am 10.2 W 7 11 1024.8 - 0.0 - - - - - - -
30/08:00am 9.1 WNW 6 9 1024.4 - 0.0 - - - - - - -
30/07:30am 7.9 WNW 4 8 1024.0 - 0.0 - - - - - - -
30/07:00am 7.4 WNW 3 6 1023.8 - 0.0 - - - - - - -
30/06:30am 7.6 WNW 5 9 1023.2 - 0.0 - - - - - - -
30/06:00am 7.6 WNW 5 10 1022.9 - 0.0 - - - - - - -
30/05:30am 7.5 WNW 3 6 1022.6 - 0.0 - - - - - - -
30/05:00am 7.7 WNW 4 9 1022.3 - 0.0 - - - - - - -
30/04:30am 8.1 WNW 5 8 1021.9 - 0.0 - - - - - - -
30/04:00am 8.3 WNW 6 9 1021.6 - 0.0 - - - - - - -
30/03:30am 8.6 W 5 8 1021.7 - 0.0 - - - - - - -
30/03:00am 8.7 W 5 7 1021.6 - 0.0 - - - - - - -
30/02:30am 9.0 W 5 7 1021.5 - 0.0 - - - - - - -
30/02:00am 9.3 W 4 6 1021.4 - 0.0 - - - - - - -
30/01:30am 9.8 W 6 8 1021.1 - 0.0 - - - - - - -
30/01:00am 10.1 WNW 6 9 1021.1 - 0.0 - - - - - - -
30/12:30am 10.3 WNW 5 8 1020.9 - 0.0 - - - - - - -
30/12:00am 10.7 W 6 8 1020.8 - 0.0 - - - - - - -
 
Date/Time
EST
Temp

°C
Wind Pressure Rain
since 9am
mm
Weather Cloud Vis
km
Sea
Height
m
Swell
Dir
 
Speed
knots
Gust
knots
hPa Trend Height
m
Period
s
Dir
29/11:30pm 11.2 W 7 11 1020.6 - 0.0 - - - - - - -
29/11:00pm 10.9 W 7 10 1020.6 - 0.0 - - - - - - -
29/10:30pm 11.1 W 7 10 1020.5 - 0.0 - - - - - - -
29/10:00pm 11.5 W 8 10 1020.3 - 0.0 - - - - - - -
29/09:30pm 11.4 W 9 12 1020.2 - 0.0 - - - - - - -
29/09:00pm 12.2 WNW 8 12 1020.0 - 0.0 - - - - - - -
29/08:30pm 12.3 WNW 5 9 1019.7 - 0.0 - - - - - - -
29/08:00pm 12.3 WNW 5 8 1019.5 - 0.0 - - - - - - -
29/07:30pm 13.3 NW 4 6 1019.1 - 0.0 - - - - - - -
29/07:00pm 13.7 NNW 5 7 1018.8 - 0.0 - - - - - - -
29/06:30pm 14.6 N 8 10 1018.4 - 0.0 - - - - - - -
29/06:00pm 15.5 CALM 0 0 1018.0 - 0.0 - - - - - - -
29/05:30pm 16.1 CALM 0 1 1017.9 - 0.0 - - - - - - -
29/05:00pm 16.0 SSW 2 3 1017.5 - 0.0 - - - - - - -
29/04:30pm 15.9 SW 3 4 1017.2 - 0.0 - - - - - - -
29/04:00pm 16.4 SW 2 4 1017.0 - 0.0 - - - - - - -
29/03:30pm 16.6 SW 4 6 1016.7 - 0.0 - - - - - - -
29/03:00pm 16.9 SW 3 6 1016.5 - 0.0 - - - - - - -
29/02:30pm 17.4 SW 5 9 1016.4 - 0.0 - - - - - - -
29/02:00pm 17.5 WSW 5 10 1016.3 - 0.0 - - - - - - -
29/01:30pm 17.3 WSW 5 9 1016.3 - 0.0 - - - - - - -
29/01:00pm 17.5 W 4 8 1016.4 - 0.0 - - - - - - -
29/12:30pm 16.8 WSW 5 9 1016.6 - 0.0 - - - - - - -
29/12:00pm 16.5 WSW 5 10 1016.7 - 0.0 - - - - - - -
29/11:30am 15.9 WSW 7 10 1016.9 - 0.0 - - - - - - -
29/11:00am 15.5 WSW 7 13 1017.2 - 0.0 - - - - - - -
29/10:30am 15.2 W 6 10 1017.4 - 0.0 - - - - - - -
29/10:00am 15.0 WNW 4 9 1017.5 - 0.0 - - - - - - -
29/09:30am 14.1 WNW 4 10 1017.3 - 0.0 - - - - - - -
29/09:00am 13.0 WNW 5 9 1017.1 - 0.6 - - - - - - -
29/08:30am 12.2 WNW 6 10 1016.8 - 0.6 - - - - - - -
29/08:00am 11.1 WNW 5 11 1016.6 - 0.6 - - - - - - -
29/07:30am 10.2 WNW 5 8 1016.3 - 0.6 - - - - - - -
29/07:00am 9.7 WNW 5 10 1015.8 - 0.6 - - - - - - -
29/06:30am 9.6 WNW 5 11 1015.5 - 0.6 - - - - - - -
29/06:00am 9.9 WNW 6 11 1015.0 - 0.6 - - - - - - -
29/05:30am 10.2 WNW 5 11 1014.6 - 0.6 - - - - - - -
29/05:00am 10.3 WNW 6 12 1014.3 - 0.6 - - - - - - -
29/04:30am 10.4 WNW 6 10 1014.0 - 0.6 - - - - - - -
29/04:00am 10.5 WNW 6 11 1013.9 - 0.6 - - - - - - -

Other Formats:

Comma delimited format used in spreadsheet applications
http://www.bom.gov.au/fwo/IDN60701/IDN60701.95770.axf

JavaScript Object Notation format (JSON) in row-major order
http://www.bom.gov.au/fwo/IDN60701/IDN60701.95770.json